sensor_id;sensor_type;location;lat;lon;timestamp;P1;durP1;ratioP1;P2;durP2;ratioP2
25922;SDS011;13725;51.170;4.442;2022-07-12T00:04:43;4.53;;;2.92;;
25922;SDS011;13725;51.170;4.442;2022-07-12T00:10:58;4.53;;;3.35;;
25922;SDS011;13725;51.170;4.442;2022-07-12T00:17:11;6.35;;;3.65;;
25922;SDS011;13725;51.170;4.442;2022-07-12T00:27:12;4.22;;;2.90;;
25922;SDS011;13725;51.170;4.442;2022-07-12T00:33:25;4.82;;;2.83;;
25922;SDS011;13725;51.170;4.442;2022-07-12T00:39:38;4.47;;;2.83;;
25922;SDS011;13725;51.170;4.442;2022-07-12T00:45:52;4.82;;;3.10;;
25922;SDS011;13725;51.170;4.442;2022-07-12T00:52:06;4.93;;;3.35;;
25922;SDS011;13725;51.170;4.442;2022-07-12T00:58:21;6.20;;;3.08;;
25922;SDS011;13725;51.170;4.442;2022-07-12T01:04:36;5.15;;;3.25;;
25922;SDS011;13725;51.170;4.442;2022-07-12T01:10:50;6.53;;;3.22;;
25922;SDS011;13725;51.170;4.442;2022-07-12T01:17:05;4.85;;;3.05;;
25922;SDS011;13725;51.170;4.442;2022-07-12T01:27:12;5.85;;;3.33;;
25922;SDS011;13725;51.170;4.442;2022-07-12T01:33:26;7.45;;;3.35;;
25922;SDS011;13725;51.170;4.442;2022-07-12T01:39:44;6.85;;;3.65;;
25922;SDS011;13725;51.170;4.442;2022-07-12T01:45:58;6.38;;;3.20;;
25922;SDS011;13725;51.170;4.442;2022-07-12T01:52:13;4.78;;;3.33;;
25922;SDS011;13725;51.170;4.442;2022-07-12T01:58:30;6.30;;;3.55;;
25922;SDS011;13725;51.170;4.442;2022-07-12T02:04:44;6.32;;;3.92;;
25922;SDS011;13725;51.170;4.442;2022-07-12T02:10:58;7.20;;;3.80;;
25922;SDS011;13725;51.170;4.442;2022-07-12T02:17:12;6.00;;;3.25;;
25922;SDS011;13725;51.170;4.442;2022-07-12T02:27:12;6.88;;;4.13;;
25922;SDS011;13725;51.170;4.442;2022-07-12T02:33:26;6.38;;;4.00;;
25922;SDS011;13725;51.170;4.442;2022-07-12T02:39:40;4.60;;;3.25;;
25922;SDS011;13725;51.170;4.442;2022-07-12T02:56:41;4.82;;;3.60;;
25922;SDS011;13725;51.170;4.442;2022-07-12T03:02:54;5.55;;;3.70;;
25922;SDS011;13725;51.170;4.442;2022-07-12T03:09:08;5.20;;;3.53;;
25922;SDS011;13725;51.170;4.442;2022-07-12T03:15:35;7.85;;;3.78;;
25922;SDS011;13725;51.170;4.442;2022-07-12T03:21:50;5.13;;;3.20;;
25922;SDS011;13725;51.170;4.442;2022-07-12T03:31:51;6.05;;;3.50;;
25922;SDS011;13725;51.170;4.442;2022-07-12T03:38:03;8.15;;;4.18;;
25922;SDS011;13725;51.170;4.442;2022-07-12T03:44:16;6.60;;;4.07;;
25922;SDS011;13725;51.170;4.442;2022-07-12T03:50:29;6.22;;;4.28;;
25922;SDS011;13725;51.170;4.442;2022-07-12T03:56:43;6.78;;;4.30;;
25922;SDS011;13725;51.170;4.442;2022-07-12T04:03:15;8.75;;;4.22;;
25922;SDS011;13725;51.170;4.442;2022-07-12T04:09:30;5.40;;;3.30;;
25922;SDS011;13725;51.170;4.442;2022-07-12T04:15:43;9.48;;;3.85;;
25922;SDS011;13725;51.170;4.442;2022-07-12T04:21:57;5.97;;;3.72;;
25922;SDS011;13725;51.170;4.442;2022-07-12T04:31:59;4.22;;;3.13;;
25922;SDS011;13725;51.170;4.442;2022-07-12T04:38:12;6.25;;;3.90;;
25922;SDS011;13725;51.170;4.442;2022-07-12T04:44:26;10.88;;;4.63;;
25922;SDS011;13725;51.170;4.442;2022-07-12T04:50:40;11.43;;;5.03;;
25922;SDS011;13725;51.170;4.442;2022-07-12T04:56:54;7.80;;;5.13;;
25922;SDS011;13725;51.170;4.442;2022-07-12T05:03:07;7.47;;;4.53;;
25922;SDS011;13725;51.170;4.442;2022-07-12T05:09:22;8.48;;;4.60;;
25922;SDS011;13725;51.170;4.442;2022-07-12T05:15:38;7.80;;;4.22;;
25922;SDS011;13725;51.170;4.442;2022-07-12T05:21:52;8.50;;;4.63;;
25922;SDS011;13725;51.170;4.442;2022-07-12T05:31:56;6.80;;;4.20;;
25922;SDS011;13725;51.170;4.442;2022-07-12T05:38:10;7.18;;;4.90;;
25922;SDS011;13725;51.170;4.442;2022-07-12T05:44:24;7.47;;;4.50;;
25922;SDS011;13725;51.170;4.442;2022-07-12T05:50:40;8.57;;;4.82;;
25922;SDS011;13725;51.170;4.442;2022-07-12T05:56:53;7.60;;;4.00;;
25922;SDS011;13725;51.170;4.442;2022-07-12T06:03:06;7.55;;;4.90;;
25922;SDS011;13725;51.170;4.442;2022-07-12T06:09:20;7.75;;;5.00;;
25922;SDS011;13725;51.170;4.442;2022-07-12T06:15:34;7.15;;;4.40;;
25922;SDS011;13725;51.170;4.442;2022-07-12T06:21:47;7.13;;;4.40;;
25922;SDS011;13725;51.170;4.442;2022-07-12T06:31:48;8.98;;;4.10;;
25922;SDS011;13725;51.170;4.442;2022-07-12T06:38:02;4.65;;;3.85;;
25922;SDS011;13725;51.170;4.442;2022-07-12T06:44:15;5.53;;;4.05;;
25922;SDS011;13725;51.170;4.442;2022-07-12T06:50:29;7.07;;;4.30;;
25922;SDS011;13725;51.170;4.442;2022-07-12T06:56:43;7.13;;;4.05;;
25922;SDS011;13725;51.170;4.442;2022-07-12T07:02:56;7.78;;;3.65;;
25922;SDS011;13725;51.170;4.442;2022-07-12T07:09:10;5.93;;;4.18;;
25922;SDS011;13725;51.170;4.442;2022-07-12T07:15:24;6.28;;;4.10;;
25922;SDS011;13725;51.170;4.442;2022-07-12T07:21:39;7.72;;;4.57;;
25922;SDS011;13725;51.170;4.442;2022-07-12T07:31:39;4.80;;;4.03;;
25922;SDS011;13725;51.170;4.442;2022-07-12T07:37:53;4.00;;;3.53;;
25922;SDS011;13725;51.170;4.442;2022-07-12T07:44:07;9.43;;;4.25;;
25922;SDS011;13725;51.170;4.442;2022-07-12T07:50:20;5.78;;;4.07;;
25922;SDS011;13725;51.170;4.442;2022-07-12T07:56:34;6.07;;;3.42;;
25922;SDS011;13725;51.170;4.442;2022-07-12T08:02:48;4.10;;;3.42;;
25922;SDS011;13725;51.170;4.442;2022-07-12T08:09:02;4.32;;;3.53;;
25922;SDS011;13725;51.170;4.442;2022-07-12T08:19:03;6.25;;;3.58;;
25922;SDS011;13725;51.170;4.442;2022-07-12T08:25:17;6.10;;;4.28;;
25922;SDS011;13725;51.170;4.442;2022-07-12T08:31:29;5.43;;;4.72;;
25922;SDS011;13725;51.170;4.442;2022-07-12T08:37:43;6.22;;;3.38;;
25922;SDS011;13725;51.170;4.442;2022-07-12T08:43:57;3.63;;;3.20;;
25922;SDS011;13725;51.170;4.442;2022-07-12T09:00:55;4.60;;;3.20;;
25922;SDS011;13725;51.170;4.442;2022-07-12T09:07:15;3.85;;;3.28;;
25922;SDS011;13725;51.170;4.442;2022-07-12T09:24:13;2.55;;;2.35;;
25922;SDS011;13725;51.170;4.442;2022-07-12T09:30:27;3.30;;;3.00;;
25922;SDS011;13725;51.170;4.442;2022-07-12T09:36:42;3.55;;;2.60;;
25922;SDS011;13725;51.170;4.442;2022-07-12T09:43:07;5.40;;;2.70;;
25922;SDS011;13725;51.170;4.442;2022-07-12T09:49:21;2.85;;;2.65;;
25922;SDS011;13725;51.170;4.442;2022-07-12T09:55:35;3.38;;;2.70;;
25922;SDS011;13725;51.170;4.442;2022-07-12T10:01:52;2.85;;;2.65;;
25922;SDS011;13725;51.170;4.442;2022-07-12T10:08:09;4.45;;;3.10;;
25922;SDS011;13725;51.170;4.442;2022-07-12T10:14:23;4.35;;;2.47;;
25922;SDS011;13725;51.170;4.442;2022-07-12T10:20:41;3.28;;;2.53;;
25922;SDS011;13725;51.170;4.442;2022-07-12T10:26:59;4.28;;;2.30;;
25922;SDS011;13725;51.170;4.442;2022-07-12T10:37:21;4.10;;;2.53;;
25922;SDS011;13725;51.170;4.442;2022-07-12T10:47:22;4.40;;;2.80;;
25922;SDS011;13725;51.170;4.442;2022-07-12T10:53:36;3.70;;;2.40;;
25922;SDS011;13725;51.170;4.442;2022-07-12T10:59:58;2.13;;;1.98;;
25922;SDS011;13725;51.170;4.442;2022-07-12T11:06:13;3.70;;;2.17;;
25922;SDS011;13725;51.170;4.442;2022-07-12T11:12:37;2.88;;;2.45;;
25922;SDS011;13725;51.170;4.442;2022-07-12T11:18:50;4.88;;;2.38;;
25922;SDS011;13725;51.170;4.442;2022-07-12T11:25:06;2.20;;;1.58;;
25922;SDS011;13725;51.170;4.442;2022-07-12T11:31:22;2.40;;;1.90;;
25922;SDS011;13725;51.170;4.442;2022-07-12T11:37:46;2.10;;;1.90;;
25922;SDS011;13725;51.170;4.442;2022-07-12T11:44:03;2.92;;;2.35;;
25922;SDS011;13725;51.170;4.442;2022-07-12T11:50:17;2.40;;;2.20;;
25922;SDS011;13725;51.170;4.442;2022-07-12T11:56:32;2.95;;;2.05;;
25922;SDS011;13725;51.170;4.442;2022-07-12T12:02:45;2.90;;;2.00;;
25922;SDS011;13725;51.170;4.442;2022-07-12T12:09:06;4.13;;;2.05;;
25922;SDS011;13725;51.170;4.442;2022-07-12T12:15:20;2.20;;;2.00;;
25922;SDS011;13725;51.170;4.442;2022-07-12T12:21:35;2.85;;;1.80;;
25922;SDS011;13725;51.170;4.442;2022-07-12T12:38:33;3.85;;;1.38;;
25922;SDS011;13725;51.170;4.442;2022-07-12T12:44:49;2.92;;;1.50;;
25922;SDS011;13725;51.170;4.442;2022-07-12T12:51:04;5.75;;;1.60;;
25922;SDS011;13725;51.170;4.442;2022-07-12T12:57:19;2.03;;;1.83;;
25922;SDS011;13725;51.170;4.442;2022-07-12T13:03:34;2.63;;;1.55;;
25922;SDS011;13725;51.170;4.442;2022-07-12T13:09:48;4.25;;;1.50;;
25922;SDS011;13725;51.170;4.442;2022-07-12T13:16:01;2.60;;;1.90;;
25922;SDS011;13725;51.170;4.442;2022-07-12T13:22:15;2.13;;;1.65;;
25922;SDS011;13725;51.170;4.442;2022-07-12T13:28:28;2.25;;;1.60;;
25922;SDS011;13725;51.170;4.442;2022-07-12T13:34:41;5.50;;;1.70;;
25922;SDS011;13725;51.170;4.442;2022-07-12T13:40:54;7.38;;;1.55;;
25922;SDS011;13725;51.170;4.442;2022-07-12T13:47:07;1.48;;;1.30;;
25922;SDS011;13725;51.170;4.442;2022-07-12T13:57:07;3.30;;;1.70;;
25922;SDS011;13725;51.170;4.442;2022-07-12T14:03:21;1.90;;;1.70;;
25922;SDS011;13725;51.170;4.442;2022-07-12T14:09:34;1.58;;;1.40;;
25922;SDS011;13725;51.170;4.442;2022-07-12T14:15:48;2.50;;;1.40;;
25922;SDS011;13725;51.170;4.442;2022-07-12T14:22:01;2.47;;;1.88;;
25922;SDS011;13725;51.170;4.442;2022-07-12T14:28:15;2.10;;;1.60;;
25922;SDS011;13725;51.170;4.442;2022-07-12T14:34:29;2.08;;;1.60;;
25922;SDS011;13725;51.170;4.442;2022-07-12T14:40:42;2.85;;;1.90;;
25922;SDS011;13725;51.170;4.442;2022-07-12T14:46:56;1.60;;;1.50;;
25922;SDS011;13725;51.170;4.442;2022-07-12T14:53:10;3.00;;;1.00;;
25922;SDS011;13725;51.170;4.442;2022-07-12T14:59:24;2.63;;;1.88;;
25922;SDS011;13725;51.170;4.442;2022-07-12T15:05:38;5.03;;;2.15;;
25922;SDS011;13725;51.170;4.442;2022-07-12T15:11:54;4.13;;;1.88;;
25922;SDS011;13725;51.170;4.442;2022-07-12T15:18:07;4.88;;;1.98;;
25922;SDS011;13725;51.170;4.442;2022-07-12T15:24:21;3.72;;;2.30;;
25922;SDS011;13725;51.170;4.442;2022-07-12T15:30:35;4.68;;;2.38;;
25922;SDS011;13725;51.170;4.442;2022-07-12T15:36:49;5.05;;;2.53;;
25922;SDS011;13725;51.170;4.442;2022-07-12T15:43:02;2.55;;;2.25;;
25922;SDS011;13725;51.170;4.442;2022-07-12T15:49:16;2.35;;;1.95;;
25922;SDS011;13725;51.170;4.442;2022-07-12T15:55:29;4.30;;;2.13;;
25922;SDS011;13725;51.170;4.442;2022-07-12T16:01:43;2.88;;;2.10;;
25922;SDS011;13725;51.170;4.442;2022-07-12T16:07:57;4.85;;;2.53;;
25922;SDS011;13725;51.170;4.442;2022-07-12T16:14:14;10.77;;;1.70;;
25922;SDS011;13725;51.170;4.442;2022-07-12T16:20:28;2.30;;;1.77;;
25922;SDS011;13725;51.170;4.442;2022-07-12T16:26:41;3.25;;;1.83;;
25922;SDS011;13725;51.170;4.442;2022-07-12T16:32:55;5.82;;;1.75;;
25922;SDS011;13725;51.170;4.442;2022-07-12T16:39:08;1.80;;;1.70;;
25922;SDS011;13725;51.170;4.442;2022-07-12T16:45:22;1.83;;;1.50;;
25922;SDS011;13725;51.170;4.442;2022-07-12T16:51:38;1.60;;;1.50;;
25922;SDS011;13725;51.170;4.442;2022-07-12T16:57:52;1.70;;;1.60;;
25922;SDS011;13725;51.170;4.442;2022-07-12T17:04:05;2.63;;;1.75;;
25922;SDS011;13725;51.170;4.442;2022-07-12T17:10:18;5.78;;;1.58;;
25922;SDS011;13725;51.170;4.442;2022-07-12T17:16:32;3.47;;;1.67;;
25922;SDS011;13725;51.170;4.442;2022-07-12T17:22:45;1.42;;;1.33;;
25922;SDS011;13725;51.170;4.442;2022-07-12T17:28:59;2.00;;;1.15;;
25922;SDS011;13725;51.170;4.442;2022-07-12T17:35:12;2.65;;;1.30;;
25922;SDS011;13725;51.170;4.442;2022-07-12T17:45:13;1.52;;;1.33;;
25922;SDS011;13725;51.170;4.442;2022-07-12T17:51:26;6.22;;;1.45;;
25922;SDS011;13725;51.170;4.442;2022-07-12T17:57:39;1.15;;;1.05;;
25922;SDS011;13725;51.170;4.442;2022-07-12T18:03:55;2.08;;;1.38;;
25922;SDS011;13725;51.170;4.442;2022-07-12T18:10:15;2.23;;;1.50;;
25922;SDS011;13725;51.170;4.442;2022-07-12T18:16:29;3.47;;;1.40;;
25922;SDS011;13725;51.170;4.442;2022-07-12T18:22:43;3.47;;;1.38;;
25922;SDS011;13725;51.170;4.442;2022-07-12T18:28:56;1.70;;;1.52;;
25922;SDS011;13725;51.170;4.442;2022-07-12T18:35:09;1.52;;;1.33;;
25922;SDS011;13725;51.170;4.442;2022-07-12T18:45:11;3.13;;;1.75;;
25922;SDS011;13725;51.170;4.442;2022-07-12T18:51:25;3.45;;;1.35;;
25922;SDS011;13725;51.170;4.442;2022-07-12T18:57:38;1.52;;;1.40;;
25922;SDS011;13725;51.170;4.442;2022-07-12T19:03:51;2.08;;;1.60;;
25922;SDS011;13725;51.170;4.442;2022-07-12T19:10:05;2.70;;;1.65;;
25922;SDS011;13725;51.170;4.442;2022-07-12T19:16:19;2.42;;;1.73;;
25922;SDS011;13725;51.170;4.442;2022-07-12T19:22:32;2.22;;;1.65;;
25922;SDS011;13725;51.170;4.442;2022-07-12T19:28:45;4.40;;;1.60;;
25922;SDS011;13725;51.170;4.442;2022-07-12T19:34:58;2.30;;;1.38;;
25922;SDS011;13725;51.170;4.442;2022-07-12T19:44:58;11.50;;;2.83;;
25922;SDS011;13725;51.170;4.442;2022-07-12T19:51:11;7.68;;;2.08;;
25922;SDS011;13725;51.170;4.442;2022-07-12T19:57:24;2.65;;;2.30;;
25922;SDS011;13725;51.170;4.442;2022-07-12T20:03:37;2.63;;;2.05;;
25922;SDS011;13725;51.170;4.442;2022-07-12T20:09:50;3.70;;;1.80;;
25922;SDS011;13725;51.170;4.442;2022-07-12T20:16:05;6.47;;;2.63;;
25922;SDS011;13725;51.170;4.442;2022-07-12T20:22:18;3.10;;;2.13;;
25922;SDS011;13725;51.170;4.442;2022-07-12T20:28:33;2.45;;;2.20;;
25922;SDS011;13725;51.170;4.442;2022-07-12T20:34:47;5.10;;;2.42;;
25922;SDS011;13725;51.170;4.442;2022-07-12T20:41:00;4.35;;;2.42;;
25922;SDS011;13725;51.170;4.442;2022-07-12T20:47:17;9.68;;;2.60;;
25922;SDS011;13725;51.170;4.442;2022-07-12T20:57:18;3.67;;;2.50;;
25922;SDS011;13725;51.170;4.442;2022-07-12T21:03:31;4.80;;;2.42;;
25922;SDS011;13725;51.170;4.442;2022-07-12T21:09:44;4.20;;;2.40;;
25922;SDS011;13725;51.170;4.442;2022-07-12T21:15:58;5.97;;;2.35;;
25922;SDS011;13725;51.170;4.442;2022-07-12T21:22:11;3.15;;;2.20;;
25922;SDS011;13725;51.170;4.442;2022-07-12T21:28:25;3.50;;;2.53;;
25922;SDS011;13725;51.170;4.442;2022-07-12T21:34:39;10.77;;;2.08;;
25922;SDS011;13725;51.170;4.442;2022-07-12T21:40:52;5.35;;;2.42;;
25922;SDS011;13725;51.170;4.442;2022-07-12T21:47:05;4.00;;;2.40;;
25922;SDS011;13725;51.170;4.442;2022-07-12T21:57:05;3.08;;;2.40;;
25922;SDS011;13725;51.170;4.442;2022-07-12T22:03:19;3.78;;;2.70;;
25922;SDS011;13725;51.170;4.442;2022-07-12T22:09:34;7.18;;;2.72;;
25922;SDS011;13725;51.170;4.442;2022-07-12T22:15:49;6.72;;;2.20;;
25922;SDS011;13725;51.170;4.442;2022-07-12T22:22:02;4.22;;;2.42;;
25922;SDS011;13725;51.170;4.442;2022-07-12T22:28:17;7.75;;;2.25;;
25922;SDS011;13725;51.170;4.442;2022-07-12T22:38:17;6.15;;;2.63;;
25922;SDS011;13725;51.170;4.442;2022-07-12T22:44:31;3.90;;;2.38;;
25922;SDS011;13725;51.170;4.442;2022-07-12T22:50:47;4.25;;;2.35;;
25922;SDS011;13725;51.170;4.442;2022-07-12T22:57:20;3.63;;;2.65;;
25922;SDS011;13725;51.170;4.442;2022-07-12T23:03:34;5.20;;;2.75;;
25922;SDS011;13725;51.170;4.442;2022-07-12T23:09:47;7.40;;;2.70;;
25922;SDS011;13725;51.170;4.442;2022-07-12T23:16:05;5.32;;;2.85;;
25922;SDS011;13725;51.170;4.442;2022-07-12T23:22:18;4.18;;;2.88;;
25922;SDS011;13725;51.170;4.442;2022-07-12T23:28:33;3.83;;;2.72;;
25922;SDS011;13725;51.170;4.442;2022-07-12T23:34:46;5.78;;;2.70;;
25922;SDS011;13725;51.170;4.442;2022-07-12T23:41:00;3.53;;;2.45;;
25922;SDS011;13725;51.170;4.442;2022-07-12T23:51:02;5.93;;;2.70;;
25922;SDS011;13725;51.170;4.442;2022-07-12T23:57:15;4.10;;;2.30;;
